EFKE/KEM METAR and TAF weather

Enter ICAO airport designator
Station Type Date Time Source
EFKE METAR 2020/01/19 17:20 UTC NOAA

EFKE 191720Z 04003KT 010V070 9999 BKN026 M06/M07 Q1015


Station Type Date Time Source
EFKE Decoded METAR 2020/01/19 17:20 UTC NOAA

Kemi, Finland (EFKE) 65-47N 024-35E
Jan 19, 2020 - 12:20 PM EST / 2020.01.19 1720 UTC
Wind: from the NE (040 degrees) at 3 MPH (3 KT) (direction variable):0
Visibility: greater than 7 mile(s):0
Sky conditions: mostly cloudy
Temperature: 21 F (-6 C)
Dew Point: 19 F (-7 C)
Relative Humidity: 92%
Pressure (altimeter): 29.97 in. Hg (1015 hPa)
ob: EFKE 191720Z 04003KT 010V070 9999 BKN026 M06/M07 Q1015
cycle: 17

Station Type Date Time Source
EFKE TAF 2015/01/12 15:42 UTC NOAA

TAF EFKE 121433Z 1215/1312 03006KT CAVOK
BECMG 1300/1302 9999 BKN015
FM130400 07008KT 9999 SCT014 BKN018
TEMPO 1304/1312 7000 -SN

Example: see airport list